EST,Max TemperatureF,Mean TemperatureF,Min TemperatureF,Max Dew PointF,MeanDew PointF,Min DewpointF,Max Humidity, Mean Humidity, Min Humidity, Max Sea Level PressureIn, Mean Sea Level PressureIn, Min Sea Level PressureIn, Max VisibilityMiles, Mean VisibilityMiles, Min VisibilityMiles, Max Wind SpeedMPH, Mean Wind SpeedMPH, Max Gust SpeedMPH,PrecipitationIn, CloudCover, Events, WindDirDegrees
2013-11-1,61,54,48,60,43,37,94,73,59,29.68,29.49,29.14,10,10,5,22,13,37,0.00,8,Rain,244
2013-11-2,47,42,37,45,40,31,93,83,74,30.11,29.83,29.67,10,9,3,13,6,17,0.00,7,Rain,324
2013-11-3,45,40,35,34,31,29,89,73,53,30.47,30.34,30.11,10,10,10,8,3,,0.00,5,,62
2013-11-4,48,40,32,34,30,25,92,64,40,30.51,30.43,30.33,10,10,10,13,5,18,0.00,0,,116
2013-11-5,55,50,45,48,41,34,84,70,60,30.38,30.32,30.20,10,10,10,10,5,,0.00,6,,202
2013-11-6,57,51,45,52,46,38,88,75,59,30.20,29.97,29.83,10,9,5,22,11,32,0.00,7,Rain,213
2013-11-7,45,40,35,38,29,20,83,62,37,30.14,30.09,29.99,10,10,10,18,10,29,0.00,6,Rain-Snow,287
2013-11-8,46,38,32,29,26,20,87,63,39,30.29,30.23,30.12,10,10,10,12,7,16,0.00,2,,257
2013-11-9,58,48,39,38,33,28,73,53,41,30.20,29.95,29.81,10,10,10,23,9,36,0.00,5,,226
2013-11-10,50,44,37,35,29,26,69,54,42,30.28,30.12,29.91,10,10,10,24,12,33,0.00,5,Rain,276
2013-11-11,43,36,29,39,30,20,92,73,62,30.31,30.15,30.03,10,8,2,16,8,23,0.00,6,Rain-Snow,266
2013-11-12,35,30,26,20,16,11,73,57,38,30.54,30.48,30.31,10,10,10,20,11,26,0.00,3,,318
2013-11-13,43,33,23,22,16,6,79,54,22,30.55,30.39,30.15,10,10,10,21,8,30,0.00,0,,231
2013-11-14,50,40,31,21,19,16,59,43,29,30.16,30.08,30.00,10,10,10,20,13,28,0.00,0,,220
2013-11-15,53,46,40,28,24,20,56,43,34,30.09,30.05,30.02,10,10,10,14,9,20,0.00,1,,214
2013-11-16,57,46,36,50,41,28,86,76,56,30.13,30.03,29.85,10,10,5,16,6,24,0.00,5,Rain,181
2013-11-17,62,56,49,58,53,38,94,84,60,29.84,29.57,29.26,10,9,2,33,11,53,0.00,7,Rain,191
2013-11-18,49,42,35,40,29,21,72,61,55,30.13,29.82,29.48,10,10,10,28,19,45,0.00,7,,272
2013-11-19,41,36,30,24,21,18,77,57,41,30.43,30.32,30.13,10,10,10,15,8,25,0.00,3,,345
2013-11-20,44,35,26,32,26,23,93,72,44,30.47,30.38,30.27,10,10,10,13,3,20,0.00,1,,99
2013-11-21,47,43,39,43,36,26,97,76,58,30.31,30.26,30.19,10,8,3,13,4,17,0.00,8,Rain,189
2013-11-22,45,37,29,44,36,24,97,88,72,30.36,30.23,30.14,10,6,1,18,4,25,0.00,6,Rain,303
2013-11-23,30,24,17,25,13,1,91,63,35,30.50,30.36,30.26,10,10,7,23,10,32,0.00,3,Snow,295
2013-11-24,24,20,15,13,7,4,74,59,41,30.58,30.52,30.42,10,10,10,15,11,25,0.00,2,Snow,281
2013-11-25,31,25,19,24,14,9,79,61,45,30.42,30.21,30.09,10,10,10,20,12,29,0.00,5,,220
2013-11-26,33,31,29,28,26,24,85,79,73,30.11,30.02,29.92,10,10,10,15,7,21,0.00,8,Snow,230
2013-11-27,30,25,20,26,12,7,83,61,46,30.18,30.01,29.90,10,10,10,21,13,28,0.00,5,Snow,320
2013-11-28,27,23,19,21,15,7,89,71,57,30.43,30.30,30.19,10,9,2,9,6,,0.00,5,Snow,243
2013-11-29,33,24,17,21,18,14,91,77,49,30.66,30.59,30.43,10,10,10,6,1,,0.00,1,,140
2013-11-30,42,34,26,27,24,21,79,66,47,30.57,30.32,30.11,10,10,10,13,5,17,0.00,2,,182